createdAt,value
2022-10-03T00:00:14.356Z,2.25
2022-10-03T00:03:21.287Z,3.20
2022-10-03T00:05:51.789Z,4.25
2022-10-03T00:08:47.799Z,3.15
2022-10-03T00:11:32.217Z,3.53
2022-10-03T00:14:31.151Z,3.08
2022-10-03T00:17:28.295Z,3.20
2022-10-03T00:20:18.989Z,4.00
2022-10-03T00:23:24.217Z,3.35
2022-10-03T00:26:30.491Z,3.28
2022-10-03T00:29:27.012Z,2.85
2022-10-03T00:32:32.155Z,4.25
2022-10-03T00:35:39.150Z,3.83
2022-10-03T00:38:21.823Z,3.17
2022-10-03T00:43:40.510Z,2.72
2022-10-03T00:46:33.974Z,2.83
2022-10-03T00:49:27.442Z,3.28
2022-10-03T00:52:29.153Z,3.50
2022-10-03T00:55:04.765Z,3.13
2022-10-03T00:58:12.387Z,3.33
2022-10-03T01:00:49.379Z,3.17
2022-10-03T01:03:42.973Z,2.97
2022-10-03T01:06:27.557Z,2.90
2022-10-03T01:09:15.352Z,3.20
2022-10-03T01:11:57.752Z,3.33
2022-10-03T01:14:49.061Z,3.72
2022-10-03T01:17:49.316Z,3.50
2022-10-03T01:20:39.497Z,3.30
2022-10-03T01:23:15.168Z,3.80
2022-10-03T01:25:56.072Z,2.85
2022-10-03T01:28:56.181Z,3.30
2022-10-03T01:31:30.010Z,3.42
2022-10-03T01:34:16.391Z,3.03
2022-10-03T01:36:52.409Z,3.40
2022-10-03T01:39:31.980Z,3.08
2022-10-03T01:42:19.936Z,3.03
2022-10-03T01:47:38.175Z,4.05
2022-10-03T01:50:38.709Z,3.55
2022-10-03T01:53:08.922Z,4.93
2022-10-03T01:56:09.414Z,4.53
2022-10-03T01:58:57.935Z,3.90
2022-10-03T02:01:49.972Z,4.15
2022-10-03T02:05:10.113Z,3.60
2022-10-03T02:08:00.940Z,3.85
2022-10-03T02:10:50.660Z,3.55
2022-10-03T02:13:48.158Z,3.20
2022-10-03T02:16:33.776Z,4.00
2022-10-03T02:19:15.147Z,4.55
2022-10-03T02:21:56.618Z,3.78
2022-10-03T02:24:51.539Z,4.57
2022-10-03T02:27:41.359Z,3.97
2022-10-03T02:30:24.996Z,3.25
2022-10-03T02:33:36.663Z,3.85
2022-10-03T02:36:23.812Z,3.65
2022-10-03T02:39:17.511Z,3.30
2022-10-03T02:41:46.295Z,3.72
2022-10-03T02:44:30.624Z,3.45
2022-10-03T02:47:26.266Z,3.50
2022-10-03T02:50:36.576Z,3.20
2022-10-03T02:53:42.394Z,3.88
2022-10-03T02:56:37.796Z,3.97
2022-10-03T02:59:19.286Z,3.33
2022-10-03T03:01:58.892Z,4.53
2022-10-03T03:05:02.859Z,3.28
2022-10-03T03:07:38.858Z,4.28
2022-10-03T03:10:54.374Z,3.10
2022-10-03T03:13:48.831Z,3.28
2022-10-03T03:16:36.509Z,2.80
2022-10-03T03:19:21.998Z,3.30
2022-10-03T03:22:35.066Z,3.75
2022-10-03T03:25:17.140Z,3.80
2022-10-03T03:28:05.399Z,2.90
2022-10-03T03:30:59.423Z,3.17
2022-10-03T03:33:43.508Z,3.40
2022-10-03T03:36:22.749Z,3.28
2022-10-03T03:38:49.332Z,3.40
2022-10-03T03:41:42.898Z,4.00
2022-10-03T03:44:38.320Z,3.97
2022-10-03T03:47:25.548Z,3.67
2022-10-03T03:50:38.497Z,3.30
2022-10-03T03:53:51.716Z,4.82
2022-10-03T03:59:14.640Z,4.38
2022-10-03T04:01:56.936Z,4.53
2022-10-03T04:04:44.466Z,3.95
2022-10-03T04:07:51.466Z,4.15
2022-10-03T04:10:44.781Z,3.88
2022-10-03T04:13:34.237Z,4.10
2022-10-03T04:17:05.860Z,3.65
2022-10-03T04:19:40.956Z,3.90
2022-10-03T04:22:24.009Z,4.97
2022-10-03T04:24:59.428Z,4.70
2022-10-03T04:27:54.514Z,4.18
2022-10-03T04:30:46.864Z,3.78
2022-10-03T04:33:35.196Z,3.83
2022-10-03T04:36:29.617Z,4.43
2022-10-03T04:38:59.260Z,3.88
2022-10-03T04:41:28.776Z,3.92
2022-10-03T04:44:06.816Z,4.60
2022-10-03T04:46:48.220Z,4.47
2022-10-03T04:49:52.062Z,5.25
2022-10-03T04:52:22.123Z,4.68
2022-10-03T04:55:10.886Z,5.45
2022-10-03T04:58:01.456Z,4.80
2022-10-03T05:00:50.384Z,4.38
2022-10-03T05:03:29.292Z,5.32
2022-10-03T05:05:57.426Z,4.82
2022-10-03T05:08:48.708Z,4.68
2022-10-03T05:11:45.313Z,4.65
2022-10-03T05:14:43.017Z,5.47
2022-10-03T05:17:15.639Z,5.28
2022-10-03T05:20:03.593Z,5.07
2022-10-03T05:22:42.134Z,5.75
2022-10-03T05:25:42.879Z,5.50
2022-10-03T05:28:16.873Z,5.15
2022-10-03T05:30:58.370Z,5.60
2022-10-03T05:33:46.635Z,5.32
2022-10-03T05:36:26.310Z,5.97
2022-10-03T05:39:20.473Z,5.60
2022-10-03T05:42:23.057Z,6.13
2022-10-03T05:45:23.281Z,5.63
2022-10-03T05:48:26.092Z,6.00
2022-10-03T05:51:20.206Z,5.68
2022-10-03T05:54:05.429Z,5.90
2022-10-03T05:56:58.561Z,6.47
2022-10-03T05:59:38.620Z,5.45
2022-10-03T06:02:40.887Z,5.88
2022-10-03T06:05:15.878Z,6.45
2022-10-03T06:08:06.172Z,6.65
2022-10-03T06:10:41.824Z,6.35
2022-10-03T06:13:44.867Z,6.93
2022-10-03T06:19:03.657Z,6.00
2022-10-03T06:21:41.943Z,5.60
2022-10-03T06:24:36.646Z,6.40
2022-10-03T06:27:30.295Z,6.85
2022-10-03T06:30:38.499Z,6.00
2022-10-03T06:33:54.084Z,6.25
2022-10-03T06:36:42.425Z,6.18
2022-10-03T06:39:27.130Z,7.82
2022-10-03T06:42:12.163Z,7.20
2022-10-03T06:45:09.614Z,7.32
2022-10-03T06:48:09.082Z,7.50
2022-10-03T06:50:53.405Z,7.78
2022-10-03T06:54:06.302Z,7.50
2022-10-03T06:57:00.730Z,7.28
2022-10-03T06:59:41.489Z,7.85
2022-10-03T07:02:33.226Z,7.40
2022-10-03T07:05:40.994Z,7.00
2022-10-03T07:08:15.628Z,7.35
2022-10-03T07:10:53.534Z,7.55
2022-10-03T07:13:42.805Z,8.45
2022-10-03T07:16:43.768Z,6.78
2022-10-03T07:19:32.618Z,7.40
2022-10-03T07:22:37.973Z,7.68
2022-10-03T07:25:33.601Z,6.55
2022-10-03T07:28:22.230Z,7.13
2022-10-03T07:31:06.442Z,8.43
2022-10-03T07:33:42.048Z,7.85
2022-10-03T07:36:49.025Z,8.15
2022-10-03T07:39:40.363Z,8.23
2022-10-03T07:42:25.886Z,9.05
2022-10-03T07:44:55.305Z,8.48
2022-10-03T07:47:50.081Z,9.32
2022-10-03T07:50:46.433Z,8.30
2022-10-03T07:53:43.361Z,8.75
2022-10-03T07:56:27.997Z,8.00
2022-10-03T07:59:23.558Z,8.13
2022-10-03T08:01:54.552Z,8.18
2022-10-03T08:04:30.138Z,8.32
2022-10-03T08:07:22.691Z,7.72
2022-10-03T08:10:03.848Z,8.55
2022-10-03T08:13:10.852Z,8.48
2022-10-03T08:15:50.055Z,7.38
2022-10-03T08:18:30.373Z,8.18
2022-10-03T08:21:00.683Z,8.07
2022-10-03T08:23:39.180Z,9.07
2022-10-03T08:26:42.421Z,8.82
2022-10-03T08:29:24.877Z,7.57
2022-10-03T08:32:12.489Z,9.07
2022-10-03T08:35:10.889Z,8.85
2022-10-03T08:38:13.569Z,7.20
2022-10-03T08:40:40.135Z,7.82
2022-10-03T08:43:29.873Z,7.75
2022-10-03T08:46:09.388Z,7.30
2022-10-03T08:48:51.506Z,7.75
2022-10-03T08:51:44.719Z,7.95
2022-10-03T08:54:27.137Z,8.15
2022-10-03T08:57:12.546Z,8.48
2022-10-03T09:00:14.708Z,7.18
2022-10-03T09:03:20.170Z,8.30
2022-10-03T09:06:00.209Z,7.85
2022-10-03T09:09:02.929Z,8.13
2022-10-03T09:12:12.189Z,7.32
2022-10-03T09:15:03.001Z,6.10
2022-10-03T09:18:00.815Z,6.93
2022-10-03T09:20:51.811Z,5.82
2022-10-03T09:23:24.696Z,6.32
2022-10-03T09:26:14.839Z,6.07
2022-10-03T09:29:20.155Z,5.47
2022-10-03T09:32:23.428Z,5.38
2022-10-03T09:35:15.597Z,5.07
2022-10-03T09:38:24.158Z,5.00
2022-10-03T09:41:28.246Z,4.75
2022-10-03T09:44:10.004Z,5.45
2022-10-03T09:47:22.432Z,5.17
2022-10-03T09:50:11.040Z,4.78
2022-10-03T09:53:11.401Z,4.43
2022-10-03T09:56:01.280Z,4.85
2022-10-03T09:59:13.237Z,4.65
2022-10-03T10:01:46.613Z,5.18
2022-10-03T10:04:53.763Z,4.55
2022-10-03T10:07:24.741Z,4.28
2022-10-03T10:10:01.009Z,3.95
2022-10-03T10:13:01.199Z,4.25
2022-10-03T10:16:11.110Z,2.17
2022-10-03T10:18:40.839Z,2.20
2022-10-03T10:21:25.660Z,2.10
2022-10-03T10:24:00.865Z,2.72
2022-10-03T10:26:46.358Z,2.00
2022-10-03T10:29:21.412Z,2.47
2022-10-03T10:32:17.751Z,1.65
2022-10-03T10:35:24.578Z,2.10
2022-10-03T10:38:15.226Z,1.90
2022-10-03T10:41:16.814Z,1.92
2022-10-03T10:43:52.508Z,1.80
2022-10-03T10:46:43.741Z,2.13
2022-10-03T10:49:49.463Z,1.75
2022-10-03T10:52:34.958Z,1.90
2022-10-03T10:55:46.389Z,1.90
2022-10-03T10:59:06.886Z,1.73
2022-10-03T11:02:21.549Z,1.77
2022-10-03T11:05:07.040Z,1.20
2022-10-03T11:08:23.534Z,0.90
2022-10-03T11:11:07.101Z,1.85
2022-10-03T11:13:45.689Z,1.20
2022-10-03T11:16:34.584Z,1.15
2022-10-03T11:19:41.676Z,1.20
2022-10-03T11:22:23.432Z,2.08
2022-10-03T11:25:23.849Z,1.40
2022-10-03T11:28:26.356Z,3.15
2022-10-03T11:31:02.996Z,1.70
2022-10-03T11:33:47.771Z,2.17
2022-10-03T11:36:36.637Z,1.08
2022-10-03T11:39:07.772Z,1.30
2022-10-03T11:42:04.647Z,1.52
2022-10-03T11:44:33.062Z,1.00
2022-10-03T11:47:37.789Z,1.10
2022-10-03T11:50:23.268Z,1.98
2022-10-03T11:53:14.842Z,1.10
2022-10-03T11:55:48.248Z,0.90
2022-10-03T11:58:53.113Z,1.67
2022-10-03T12:01:29.390Z,1.00
2022-10-03T12:04:03.636Z,0.80
2022-10-03T12:07:00.077Z,1.10
2022-10-03T12:10:02.774Z,1.77
2022-10-03T12:12:43.232Z,1.30
2022-10-03T12:15:38.188Z,2.13
2022-10-03T12:18:31.182Z,0.90
2022-10-03T12:21:11.340Z,0.95
2022-10-03T12:24:03.033Z,1.50
2022-10-03T12:26:43.986Z,1.65
2022-10-03T12:29:13.503Z,1.08
2022-10-03T12:31:48.222Z,1.08
2022-10-03T12:34:33.829Z,1.00
2022-10-03T12:37:41.902Z,1.38
2022-10-03T12:40:21.678Z,1.10
2022-10-03T12:42:48.334Z,1.15
2022-10-03T12:45:36.285Z,0.80
2022-10-03T12:48:22.173Z,1.20
2022-10-03T12:51:13.957Z,1.58
2022-10-03T12:53:51.904Z,0.90
2022-10-03T12:56:36.401Z,1.55
2022-10-03T12:59:15.926Z,1.33
2022-10-03T13:02:06.807Z,1.13
2022-10-03T13:04:41.854Z,1.33
2022-10-03T13:07:19.655Z,1.10
2022-10-03T13:10:01.915Z,1.10
2022-10-03T13:12:43.696Z,1.10
2022-10-03T13:15:48.007Z,1.05
2022-10-03T13:18:42.618Z,1.58
2022-10-03T13:21:43.867Z,1.02
2022-10-03T13:24:25.314Z,1.25
2022-10-03T13:27:03.764Z,1.20
2022-10-03T13:29:53.445Z,0.77
2022-10-03T13:32:28.714Z,0.98
2022-10-03T13:35:25.504Z,0.98
2022-10-03T13:38:26.261Z,1.00
2022-10-03T13:41:17.334Z,0.70
2022-10-03T13:43:51.403Z,0.98
2022-10-03T13:46:40.866Z,0.95
2022-10-03T13:49:23.218Z,0.50
2022-10-03T13:52:17.907Z,0.75
2022-10-03T13:55:13.042Z,1.00
2022-10-03T13:57:59.641Z,0.85
2022-10-03T14:00:32.277Z,0.95
2022-10-03T14:03:05.105Z,1.17
2022-10-03T14:06:18.200Z,0.70
2022-10-03T14:09:12.248Z,1.40
2022-10-03T14:11:50.068Z,0.77
2022-10-03T14:14:28.369Z,0.90
2022-10-03T14:17:24.538Z,0.85
2022-10-03T14:20:39.030Z,0.75
2022-10-03T14:23:40.180Z,0.80
2022-10-03T14:26:22.724Z,0.77
2022-10-03T14:29:10.921Z,2.60
2022-10-03T14:31:57.379Z,1.23
2022-10-03T14:34:41.205Z,1.13
2022-10-03T14:37:31.312Z,0.85
2022-10-03T14:40:31.216Z,1.10
2022-10-03T14:43:05.850Z,0.65
2022-10-03T14:45:39.659Z,0.93
2022-10-03T14:48:18.340Z,1.45
2022-10-03T14:50:49.521Z,1.20
2022-10-03T14:53:20.338Z,0.82
2022-10-03T14:56:06.376Z,0.93
2022-10-03T14:58:37.892Z,0.90
2022-10-03T15:01:15.919Z,0.90
2022-10-03T15:03:53.764Z,1.05
2022-10-03T15:06:44.214Z,1.20
2022-10-03T15:09:13.673Z,0.80
2022-10-03T15:11:52.439Z,0.60
2022-10-03T15:14:20.448Z,1.10
2022-10-03T15:16:54.860Z,1.15
2022-10-03T15:19:32.962Z,1.20
2022-10-03T15:22:25.624Z,0.80
2022-10-03T15:27:23.062Z,0.73
2022-10-03T15:29:56.809Z,1.65
2022-10-03T15:32:43.478Z,1.40
2022-10-03T15:35:24.699Z,1.13
2022-10-03T15:37:52.374Z,0.70
2022-10-03T15:40:29.879Z,1.17
2022-10-03T15:43:09.098Z,1.08
2022-10-03T15:45:37.500Z,1.17
2022-10-03T15:48:11.531Z,0.93
2022-10-03T15:50:41.185Z,0.68
2022-10-03T15:53:35.004Z,1.10
2022-10-03T15:56:28.845Z,1.75
2022-10-03T15:59:01.064Z,0.98
2022-10-03T16:01:34.776Z,0.80
2022-10-03T16:04:04.515Z,0.75
2022-10-03T16:06:57.798Z,1.45
2022-10-03T16:09:46.167Z,0.88
2022-10-03T16:12:13.146Z,0.93
2022-10-03T16:14:58.440Z,1.25
2022-10-03T16:18:02.192Z,0.95
2022-10-03T16:20:45.853Z,1.08
2022-10-03T16:23:24.439Z,1.02
2022-10-03T16:26:07.837Z,0.70
2022-10-03T16:28:45.022Z,0.93
2022-10-03T16:31:14.987Z,1.55
2022-10-03T16:33:50.568Z,1.08
2022-10-03T16:36:21.582Z,1.05
2022-10-03T16:39:04.966Z,1.70
2022-10-03T16:41:40.620Z,1.08
2022-10-03T16:44:21.296Z,1.20
2022-10-03T16:46:49.568Z,1.60
2022-10-03T16:49:41.032Z,0.88
2022-10-03T16:52:21.173Z,1.23
2022-10-03T16:54:53.442Z,0.90
2022-10-03T16:59:51.973Z,1.17
2022-10-03T17:02:27.108Z,1.05
2022-10-03T17:05:07.240Z,1.05
2022-10-03T17:07:46.858Z,1.60
2022-10-03T17:10:35.318Z,1.65
2022-10-03T17:13:13.337Z,2.00
2022-10-03T17:16:07.618Z,2.15
2022-10-03T17:18:43.349Z,2.00
2022-10-03T17:21:25.745Z,1.77
2022-10-03T17:24:12.890Z,1.38
2022-10-03T17:26:49.821Z,1.38
2022-10-03T17:29:28.793Z,1.27
2022-10-03T17:32:22.541Z,1.90
2022-10-03T17:35:05.430Z,2.30
2022-10-03T17:38:37.166Z,2.92
2022-10-03T17:41:14.237Z,3.42
2022-10-03T17:43:44.814Z,3.75
2022-10-03T17:46:29.704Z,4.07
2022-10-03T17:49:19.423Z,3.95
2022-10-03T17:51:49.276Z,3.28
2022-10-03T17:54:28.672Z,3.15
2022-10-03T17:57:06.136Z,2.90
2022-10-03T17:59:56.904Z,2.03
2022-10-03T18:02:44.465Z,1.55
2022-10-03T18:05:19.466Z,2.20
2022-10-03T18:07:49.353Z,1.95
2022-10-03T18:10:36.661Z,1.67
2022-10-03T18:13:14.741Z,1.73
2022-10-03T18:15:57.957Z,1.73
2022-10-03T18:18:44.724Z,1.52
2022-10-03T18:21:24.883Z,1.48
2022-10-03T18:23:55.610Z,1.52
2022-10-03T18:26:37.925Z,1.40
2022-10-03T18:29:41.348Z,1.67
2022-10-03T18:32:10.741Z,1.83
2022-10-03T18:34:50.072Z,1.33
2022-10-03T18:37:28.755Z,1.60
2022-10-03T18:39:58.271Z,1.50
2022-10-03T18:42:30.281Z,1.27
2022-10-03T18:44:59.748Z,1.58
2022-10-03T18:47:35.861Z,1.63
2022-10-03T18:50:06.783Z,1.70
2022-10-03T18:53:04.418Z,1.65
2022-10-03T18:55:47.941Z,1.63
2022-10-03T18:58:29.966Z,1.17
2022-10-03T19:01:19.094Z,1.13
2022-10-03T19:04:00.229Z,1.90
2022-10-03T19:06:36.002Z,1.65
2022-10-03T19:09:13.206Z,1.95
2022-10-03T19:11:54.325Z,2.20
2022-10-03T19:14:35.506Z,2.13
2022-10-03T19:17:33.789Z,2.33
2022-10-03T19:20:17.745Z,2.47
2022-10-03T19:23:07.912Z,2.92
2022-10-03T19:25:38.438Z,3.10
2022-10-03T19:28:19.093Z,3.33
2022-10-03T19:30:56.177Z,3.47
2022-10-03T19:33:28.499Z,3.72
2022-10-03T19:36:04.553Z,3.90
2022-10-03T19:38:40.306Z,3.58
2022-10-03T19:41:28.390Z,3.22
2022-10-03T19:44:01.646Z,3.13
2022-10-03T19:46:48.891Z,2.88
2022-10-03T19:49:41.220Z,3.08
2022-10-03T19:52:14.231Z,3.50
2022-10-03T19:54:50.872Z,2.67
2022-10-03T19:57:29.704Z,2.72
2022-10-03T20:00:04.299Z,2.72
2022-10-03T20:02:41.634Z,2.90
2022-10-03T20:05:08.617Z,2.40
2022-10-03T20:07:45.730Z,2.30
2022-10-03T20:10:32.911Z,2.17
2022-10-03T20:13:04.365Z,2.17
2022-10-03T20:15:44.699Z,2.05
2022-10-03T20:18:36.804Z,2.35
2022-10-03T20:21:11.494Z,2.60
2022-10-03T20:23:41.812Z,1.92
2022-10-03T20:26:20.708Z,2.40
2022-10-03T20:28:50.135Z,2.05
2022-10-03T20:31:23.032Z,2.15
2022-10-03T20:33:54.498Z,2.05
2022-10-03T20:36:24.526Z,2.08
2022-10-03T20:39:21.349Z,2.00
2022-10-03T20:42:02.182Z,2.22
2022-10-03T20:45:14.889Z,2.25
2022-10-03T20:48:00.317Z,1.38
2022-10-03T20:50:40.317Z,1.70
2022-10-03T20:53:18.474Z,1.92
2022-10-03T20:55:52.096Z,1.85
2022-10-03T20:58:35.959Z,2.28
2022-10-03T21:01:14.762Z,2.58
2022-10-03T21:03:54.521Z,2.30
2022-10-03T21:06:28.828Z,2.10
2022-10-03T21:08:57.130Z,2.17
2022-10-03T21:11:29.773Z,2.00
2022-10-03T21:14:15.608Z,2.75
2022-10-03T21:16:52.593Z,1.88
2022-10-03T21:19:45.843Z,2.10
2022-10-03T21:22:19.957Z,2.38
2022-10-03T21:25:07.399Z,1.92
2022-10-03T21:27:34.568Z,1.85
2022-10-03T21:30:15.916Z,2.28
2022-10-03T21:32:57.518Z,2.30
2022-10-03T21:35:31.331Z,2.10
2022-10-03T21:38:19.357Z,2.08
2022-10-03T21:41:17.391Z,2.00
2022-10-03T21:44:04.411Z,2.05
2022-10-03T21:46:38.543Z,2.33
2022-10-03T21:49:44.445Z,2.15
2022-10-03T21:52:38.650Z,2.50
2022-10-03T21:55:15.957Z,1.83
2022-10-03T21:58:13.451Z,2.20
2022-10-03T22:01:27.996Z,2.28
2022-10-03T22:04:11.844Z,1.92
2022-10-03T22:06:47.525Z,2.50
2022-10-03T22:09:16.322Z,2.65
2022-10-03T22:11:54.832Z,3.10
2022-10-03T22:14:55.467Z,2.40
2022-10-03T22:17:53.833Z,2.80
2022-10-03T22:20:31.529Z,2.10
2022-10-03T22:23:01.140Z,2.40
2022-10-03T22:25:44.131Z,2.25
2022-10-03T22:28:49.141Z,2.30
2022-10-03T22:31:26.258Z,2.25
2022-10-03T22:34:11.783Z,2.40
2022-10-03T22:36:39.266Z,2.50
2022-10-03T22:39:27.517Z,2.53
2022-10-03T22:41:57.599Z,2.30
2022-10-03T22:44:31.602Z,2.28
2022-10-03T22:47:05.869Z,3.30
2022-10-03T22:49:38.303Z,2.65
2022-10-03T22:52:13.547Z,3.30
2022-10-03T22:54:42.109Z,3.72
2022-10-03T22:57:12.801Z,3.88
2022-10-03T22:59:50.164Z,3.05
2022-10-03T23:02:25.988Z,3.53
2022-10-03T23:05:06.213Z,4.65
2022-10-03T23:07:56.957Z,2.90
2022-10-03T23:10:55.225Z,3.10
2022-10-03T23:13:42.104Z,2.83
2022-10-03T23:16:19.747Z,2.97
2022-10-03T23:19:01.177Z,2.92
2022-10-03T23:21:28.922Z,2.95
2022-10-03T23:24:08.633Z,2.60
2022-10-03T23:26:59.945Z,2.70
2022-10-03T23:29:26.723Z,2.65
2022-10-03T23:31:59.497Z,2.92
2022-10-03T23:34:39.037Z,2.80
2022-10-03T23:37:11.582Z,3.75
2022-10-03T23:39:43.538Z,2.92
2022-10-03T23:42:20.676Z,3.13
2022-10-03T23:45:11.760Z,3.03
2022-10-03T23:48:02.692Z,2.80
2022-10-03T23:50:45.126Z,3.08
2022-10-03T23:53:34.008Z,3.13
2022-10-03T23:56:03.072Z,2.65
2022-10-03T23:58:33.367Z,3.00
